createdAt,value
2023-05-05T00:00:11.150Z,189.54
2023-05-05T00:01:11.207Z,192.88
2023-05-05T00:02:11.329Z,196.91
2023-05-05T00:03:11.372Z,194.70
2023-05-05T00:04:11.428Z,186.91
2023-05-05T00:05:11.476Z,186.17
2023-05-05T00:06:11.506Z,182.09
2023-05-05T00:07:11.562Z,184.60
2023-05-05T00:08:11.619Z,182.93
2023-05-05T00:09:11.667Z,186.91
2023-05-05T00:10:11.726Z,185.89
2023-05-05T00:11:11.797Z,188.08
2023-05-05T00:12:11.848Z,190.03
2023-05-05T00:13:11.934Z,190.00
2023-05-05T00:14:11.926Z,188.26
2023-05-05T00:15:11.970Z,190.34
2023-05-05T00:16:12.031Z,193.23
2023-05-05T00:17:12.170Z,194.01
2023-05-05T00:18:12.108Z,198.11
2023-05-05T00:19:12.149Z,199.62
2023-05-05T00:20:12.285Z,206.97
2023-05-05T00:21:12.246Z,229.61
2023-05-05T00:22:12.250Z,235.40
2023-05-05T00:23:12.259Z,228.11
2023-05-05T00:24:12.266Z,226.74
2023-05-05T00:25:12.263Z,219.56
2023-05-05T00:26:12.260Z,218.43
2023-05-05T00:27:12.278Z,216.96
2023-05-05T00:28:12.284Z,216.70
2023-05-05T00:29:12.285Z,217.40
2023-05-05T00:30:12.306Z,221.66
2023-05-05T00:31:12.373Z,227.62
2023-05-05T00:32:12.342Z,222.56
2023-05-05T00:33:12.320Z,218.70
2023-05-05T00:34:12.341Z,212.55
2023-05-05T00:35:12.347Z,214.51
2023-05-05T00:36:12.327Z,223.46
2023-05-05T00:37:12.319Z,227.16
2023-05-05T00:38:12.325Z,223.61
2023-05-05T00:39:12.315Z,223.06
2023-05-05T00:40:12.319Z,218.66
2023-05-05T00:41:12.346Z,215.62
2023-05-05T00:42:12.433Z,216.84
2023-05-05T00:43:12.331Z,208.95
2023-05-05T00:44:12.411Z,202.70
2023-05-05T00:45:12.368Z,197.28
2023-05-05T00:46:12.380Z,197.77
2023-05-05T00:47:12.387Z,194.93
2023-05-05T00:48:12.372Z,200.53
2023-05-05T00:49:12.432Z,207.63
2023-05-05T00:50:12.383Z,219.27
2023-05-05T00:51:12.399Z,220.99
2023-05-05T00:52:12.450Z,218.23
2023-05-05T00:53:12.420Z,216.60
2023-05-05T00:54:12.426Z,213.84
2023-05-05T00:55:12.422Z,213.59
2023-05-05T00:56:12.400Z,213.18
2023-05-05T00:57:12.448Z,222.48
2023-05-05T00:58:12.444Z,242.13
2023-05-05T00:59:12.462Z,248.34
2023-05-05T01:00:12.472Z,244.07
2023-05-05T01:01:12.528Z,235.41
2023-05-05T01:02:12.479Z,241.86
2023-05-05T01:03:12.517Z,242.22
2023-05-05T01:04:12.477Z,240.96
2023-05-05T01:05:12.545Z,233.33
2023-05-05T01:06:12.467Z,235.51
2023-05-05T01:07:12.474Z,235.83
2023-05-05T01:08:12.475Z,236.40
2023-05-05T01:09:12.448Z,236.25
2023-05-05T01:10:19.577Z,233.89
2023-05-05T01:11:13.440Z,234.12
2023-05-05T01:12:12.455Z,235.37
2023-05-05T01:13:12.529Z,238.39
2023-05-05T01:14:12.418Z,236.95
2023-05-05T01:15:12.409Z,237.71
2023-05-05T01:16:12.453Z,230.26
2023-05-05T01:17:12.400Z,230.99
2023-05-05T01:18:12.381Z,223.13
2023-05-05T01:19:12.396Z,222.40
2023-05-05T01:20:12.369Z,228.88
2023-05-05T01:21:12.368Z,232.70
2023-05-05T01:22:12.369Z,249.58
2023-05-05T01:23:12.346Z,246.33
2023-05-05T01:24:12.337Z,248.28
2023-05-05T01:25:12.355Z,243.09
2023-05-05T01:26:12.420Z,229.73
2023-05-05T01:27:12.325Z,224.83
2023-05-05T01:28:12.310Z,218.98
2023-05-05T01:29:12.311Z,218.84
2023-05-05T01:30:12.285Z,219.70
2023-05-05T01:31:12.373Z,221.04
2023-05-05T01:32:12.310Z,225.70
2023-05-05T01:33:12.273Z,231.66
2023-05-05T01:34:12.302Z,230.68
2023-05-05T01:35:12.256Z,234.61
2023-05-05T01:36:12.258Z,236.93
2023-05-05T01:37:12.257Z,238.01
2023-05-05T01:38:12.246Z,239.99
2023-05-05T01:39:12.236Z,239.64
2023-05-05T01:40:12.220Z,241.18
2023-05-05T01:41:12.220Z,239.07
2023-05-05T01:42:12.215Z,239.54
2023-05-05T01:43:12.240Z,240.69
2023-05-05T01:44:12.212Z,245.34
2023-05-05T01:45:12.196Z,244.53
2023-05-05T01:46:12.239Z,250.00
2023-05-05T01:47:12.187Z,249.16
2023-05-05T01:48:12.285Z,248.18
2023-05-05T01:49:12.172Z,247.19
2023-05-05T01:50:12.182Z,248.77
2023-05-05T01:51:12.164Z,247.29
2023-05-05T01:52:12.160Z,242.17
2023-05-05T01:53:12.162Z,239.04
2023-05-05T01:54:12.169Z,237.97
2023-05-05T01:55:12.141Z,241.43
2023-05-05T01:56:12.125Z,243.72
2023-05-05T01:57:12.104Z,242.42
2023-05-05T01:58:12.118Z,246.17
2023-05-05T01:59:12.117Z,248.37
2023-05-05T02:00:12.104Z,250.00
2023-05-05T02:01:12.122Z,246.52
2023-05-05T02:02:12.139Z,245.97
2023-05-05T02:03:12.185Z,243.77
2023-05-05T02:04:12.155Z,242.79
2023-05-05T02:05:12.105Z,238.43
2023-05-05T02:06:12.085Z,230.70
2023-05-05T02:07:12.092Z,228.63
2023-05-05T02:08:12.098Z,230.28
2023-05-05T02:09:12.093Z,235.55
2023-05-05T02:10:12.182Z,240.35
2023-05-05T02:11:12.098Z,244.54
2023-05-05T02:12:12.065Z,246.03
2023-05-05T02:13:12.137Z,246.81
2023-05-05T02:14:12.111Z,248.41
2023-05-05T02:15:12.076Z,245.63
2023-05-05T02:16:12.120Z,247.32
2023-05-05T02:17:12.073Z,248.52
2023-05-05T02:18:12.050Z,247.01
2023-05-05T02:19:12.088Z,246.17
2023-05-05T02:20:12.074Z,243.44
2023-05-05T02:21:12.069Z,240.28
2023-05-05T02:22:12.080Z,237.58
2023-05-05T02:23:12.079Z,236.21
2023-05-05T02:24:12.050Z,238.54
2023-05-05T02:25:12.060Z,235.13
2023-05-05T02:26:12.056Z,244.82
2023-05-05T02:27:12.085Z,243.49
2023-05-05T02:28:12.063Z,240.60
2023-05-05T02:29:12.088Z,236.39
2023-05-05T02:30:12.081Z,238.01
2023-05-05T02:31:12.105Z,242.46
2023-05-05T02:32:12.035Z,248.42
2023-05-05T02:33:12.162Z,250.00
2023-05-05T02:34:12.078Z,245.88
2023-05-05T02:35:12.082Z,241.33
2023-05-05T02:36:12.061Z,229.39
2023-05-05T02:37:12.060Z,229.00
2023-05-05T02:38:12.034Z,227.16
2023-05-05T02:39:12.046Z,222.05
2023-05-05T02:40:12.039Z,221.57
2023-05-05T02:41:12.035Z,214.91
2023-05-05T02:42:12.038Z,219.37
2023-05-05T02:43:12.061Z,227.00
2023-05-05T02:44:12.069Z,245.07
2023-05-05T02:45:12.008Z,244.93
2023-05-05T02:46:12.025Z,239.21
2023-05-05T02:47:12.012Z,236.16
2023-05-05T02:48:11.992Z,234.35
2023-05-05T02:49:12.003Z,234.68
2023-05-05T02:50:11.980Z,236.41
2023-05-05T02:51:12.001Z,238.22
2023-05-05T02:52:11.984Z,240.74
2023-05-05T02:53:11.997Z,240.79
2023-05-05T02:54:11.999Z,240.34
2023-05-05T02:55:12.074Z,241.51
2023-05-05T02:56:11.974Z,243.20
2023-05-05T02:57:11.960Z,241.83
2023-05-05T02:58:11.981Z,244.48
2023-05-05T02:59:13.321Z,243.75
2023-05-05T03:00:12.015Z,241.48
2023-05-05T03:01:12.070Z,241.84
2023-05-05T03:02:12.018Z,238.21
2023-05-05T03:03:12.085Z,238.08
2023-05-05T03:04:12.030Z,239.01
2023-05-05T03:05:12.005Z,235.74
2023-05-05T03:06:12.004Z,237.39
2023-05-05T03:07:12.003Z,232.30
2023-05-05T03:08:12.011Z,229.53
2023-05-05T03:09:11.979Z,226.46
2023-05-05T03:10:12.004Z,233.36
2023-05-05T03:11:11.998Z,241.26
2023-05-05T03:12:11.988Z,246.45
2023-05-05T03:13:12.038Z,240.75
2023-05-05T03:14:12.037Z,242.27
2023-05-05T03:15:11.982Z,239.19
2023-05-05T03:16:12.029Z,229.98
2023-05-05T03:17:12.088Z,216.25
2023-05-05T03:18:11.986Z,209.76
2023-05-05T03:19:11.993Z,206.62
2023-05-05T03:20:11.981Z,214.05
2023-05-05T03:21:12.000Z,216.24
2023-05-05T03:22:11.986Z,218.35
2023-05-05T03:23:11.973Z,226.77
2023-05-05T03:24:11.963Z,225.36
2023-05-05T03:25:11.960Z,230.19
2023-05-05T03:26:11.969Z,234.01
2023-05-05T03:27:11.949Z,243.09
2023-05-05T03:28:11.955Z,244.48
2023-05-05T03:29:11.953Z,243.84
2023-05-05T03:30:11.965Z,241.25
2023-05-05T03:31:11.967Z,241.02
2023-05-05T03:32:12.019Z,245.70
2023-05-05T03:33:11.976Z,246.36
2023-05-05T03:34:12.042Z,245.29
2023-05-05T03:35:11.962Z,247.84
2023-05-05T03:36:11.968Z,245.72
2023-05-05T03:37:11.939Z,250.00
2023-05-05T03:38:11.975Z,249.49
2023-05-05T03:39:12.076Z,248.26
2023-05-05T03:40:11.986Z,249.01
2023-05-05T03:41:12.021Z,248.43
2023-05-05T03:42:12.014Z,249.90
2023-05-05T03:43:12.039Z,250.00
2023-05-05T03:44:12.039Z,249.64
2023-05-05T03:45:12.021Z,248.57
2023-05-05T03:46:12.114Z,249.16
2023-05-05T03:47:12.028Z,245.80
2023-05-05T03:48:12.039Z,240.25
2023-05-05T03:49:12.013Z,234.51
2023-05-05T03:50:12.018Z,232.11
2023-05-05T03:51:12.017Z,229.55
2023-05-05T03:52:13.833Z,230.12
2023-05-05T03:53:12.007Z,233.91
2023-05-05T03:54:12.013Z,237.83
2023-05-05T03:55:11.982Z,238.06
2023-05-05T03:56:11.972Z,242.55
2023-05-05T03:57:11.968Z,238.98
2023-05-05T03:58:11.957Z,239.55
2023-05-05T03:59:11.952Z,240.66
2023-05-05T04:00:11.982Z,241.26
2023-05-05T04:01:12.037Z,243.79
2023-05-05T04:02:11.956Z,242.56
2023-05-05T04:03:12.003Z,241.50
2023-05-05T04:04:11.970Z,238.89
2023-05-05T04:05:11.923Z,239.00
2023-05-05T04:06:11.914Z,237.76
2023-05-05T04:07:11.910Z,236.67
2023-05-05T04:08:11.906Z,231.95
2023-05-05T04:09:11.896Z,228.07
2023-05-05T04:10:11.919Z,223.39
2023-05-05T04:11:11.859Z,222.85
2023-05-05T04:12:11.858Z,219.17
2023-05-05T04:13:11.977Z,220.53
2023-05-05T04:14:11.922Z,218.86
2023-05-05T04:15:11.845Z,220.83
2023-05-05T04:16:11.845Z,219.91
2023-05-05T04:17:11.836Z,226.61
2023-05-05T04:18:11.830Z,235.90
2023-05-05T04:19:11.803Z,243.53
2023-05-05T04:20:11.795Z,246.23
2023-05-05T04:21:11.806Z,243.82
2023-05-05T04:22:11.803Z,244.00
2023-05-05T04:23:11.795Z,241.60
2023-05-05T04:24:11.908Z,234.52
2023-05-05T04:25:11.776Z,223.34
2023-05-05T04:26:11.779Z,219.76
2023-05-05T04:27:11.752Z,209.54
2023-05-05T04:28:11.762Z,208.10
2023-05-05T04:29:11.734Z,211.67
2023-05-05T04:30:11.766Z,215.12
2023-05-05T04:31:11.731Z,215.19
2023-05-05T04:32:11.736Z,214.91
2023-05-05T04:33:11.712Z,211.31
2023-05-05T04:34:11.716Z,206.06
2023-05-05T04:35:11.695Z,203.72
2023-05-05T04:36:11.696Z,203.25
2023-05-05T04:37:11.692Z,199.09
2023-05-05T04:38:11.689Z,201.57
2023-05-05T04:39:11.679Z,202.06
2023-05-05T04:40:11.668Z,203.87
2023-05-05T04:41:11.666Z,209.84
2023-05-05T04:42:11.655Z,206.83
2023-05-05T04:43:11.649Z,210.15
2023-05-05T04:44:11.626Z,211.33
2023-05-05T04:45:11.644Z,211.43
2023-05-05T04:46:11.764Z,211.59
2023-05-05T04:47:14.476Z,208.00
2023-05-05T04:48:11.612Z,208.08
2023-05-05T04:49:11.601Z,206.75
2023-05-05T04:50:11.592Z,205.80
2023-05-05T04:51:11.582Z,202.80
2023-05-05T04:52:11.566Z,203.20
2023-05-05T04:53:11.590Z,202.26
2023-05-05T04:54:11.578Z,202.19
2023-05-05T04:55:11.625Z,197.33
2023-05-05T04:56:11.557Z,197.94
2023-05-05T04:57:11.557Z,202.12
2023-05-05T04:58:11.569Z,200.25
2023-05-05T04:59:11.545Z,202.90
2023-05-05T05:00:11.759Z,205.71
2023-05-05T05:01:11.529Z,211.31
2023-05-05T05:02:11.553Z,215.11
2023-05-05T05:03:11.665Z,217.67
2023-05-05T05:04:11.494Z,223.04
2023-05-05T05:05:11.518Z,224.48
2023-05-05T05:06:11.495Z,227.71
2023-05-05T05:07:11.476Z,229.14
2023-05-05T05:08:11.546Z,228.80
2023-05-05T05:09:11.451Z,230.63
2023-05-05T05:10:11.466Z,237.73
2023-05-05T05:11:11.437Z,246.04
2023-05-05T05:12:11.430Z,249.67
2023-05-05T05:13:12.654Z,249.33
2023-05-05T05:14:11.416Z,247.52
2023-05-05T05:15:11.419Z,248.78
2023-05-05T05:16:11.439Z,242.18
2023-05-05T05:17:11.413Z,240.40
2023-05-05T05:18:11.397Z,243.36
2023-05-05T05:19:11.404Z,242.27
2023-05-05T05:20:11.625Z,241.45
2023-05-05T05:21:11.362Z,244.12
2023-05-05T05:22:11.383Z,241.32
2023-05-05T05:23:11.368Z,246.49
2023-05-05T05:24:11.367Z,243.37
2023-05-05T05:25:11.337Z,243.15
2023-05-05T05:26:11.634Z,247.08
2023-05-05T05:27:11.324Z,244.93
2023-05-05T05:28:11.365Z,247.37
2023-05-05T05:29:11.410Z,250.52
2023-05-05T05:30:11.554Z,250.00
2023-05-05T05:31:11.630Z,248.06
2023-05-05T05:32:11.627Z,248.62
2023-05-05T05:33:11.656Z,255.20
2023-05-05T05:34:12.840Z,245.61
2023-05-05T05:35:11.683Z,244.12
2023-05-05T05:36:11.718Z,245.23
2023-05-05T05:37:11.785Z,248.83
2023-05-05T05:38:11.835Z,248.27
2023-05-05T05:39:11.841Z,249.17
2023-05-05T05:40:12.613Z,250.70
2023-05-05T05:41:11.905Z,249.13
2023-05-05T05:42:11.938Z,250.00
2023-05-05T05:43:12.169Z,249.73
2023-05-05T05:44:12.003Z,250.00
2023-05-05T05:45:12.014Z,249.05
2023-05-05T05:46:12.090Z,248.76
2023-05-05T05:47:12.076Z,250.00
2023-05-05T05:48:12.137Z,248.93
2023-05-05T05:49:12.151Z,249.64
2023-05-05T05:50:12.178Z,250.00
2023-05-05T05:51:12.201Z,249.86
2023-05-05T05:52:12.309Z,249.49
2023-05-05T05:53:12.252Z,249.74
2023-05-05T05:54:12.248Z,250.00
2023-05-05T05:55:12.246Z,249.34
2023-05-05T05:56:12.256Z,249.73
2023-05-05T05:57:12.273Z,249.23
2023-05-05T05:58:12.299Z,250.00
2023-05-05T05:59:12.283Z,250.00
2023-05-05T06:00:12.306Z,250.00
2023-05-05T06:01:12.312Z,249.19
2023-05-05T06:02:12.371Z,249.41
2023-05-05T06:03:12.546Z,250.00
2023-05-05T06:04:12.731Z,249.93
2023-05-05T06:05:12.354Z,248.60
2023-05-05T06:06:12.363Z,249.40
2023-05-05T06:07:12.360Z,249.54
2023-05-05T06:08:12.383Z,249.32
2023-05-05T06:09:12.387Z,249.85
2023-05-05T06:10:26.477Z,249.26
2023-05-05T06:11:13.401Z,249.37
2023-05-05T06:12:12.356Z,249.58
2023-05-05T06:13:12.471Z,250.15
2023-05-05T06:14:12.339Z,251.19
2023-05-05T06:15:12.443Z,252.81
2023-05-05T06:16:12.363Z,248.79
2023-05-05T06:17:12.323Z,249.44
2023-05-05T06:18:12.339Z,250.00
2023-05-05T06:19:12.645Z,250.00
2023-05-05T06:20:12.307Z,248.44
2023-05-05T06:21:12.380Z,249.51
2023-05-05T06:22:12.311Z,250.00
2023-05-05T06:23:12.286Z,249.93
2023-05-05T06:24:12.657Z,249.11
2023-05-05T06:25:12.286Z,249.79
2023-05-05T06:26:12.276Z,248.95
2023-05-05T06:27:12.260Z,249.30
2023-05-05T06:28:12.274Z,249.22
2023-05-05T06:29:12.500Z,249.64
2023-05-05T06:30:12.252Z,248.84
2023-05-05T06:31:12.295Z,249.47
2023-05-05T06:32:12.648Z,248.53
2023-05-05T06:33:12.226Z,246.28
2023-05-05T06:34:12.635Z,244.97
2023-05-05T06:35:12.217Z,243.96
2023-05-05T06:36:12.198Z,240.62
2023-05-05T06:37:12.641Z,242.41
2023-05-05T06:38:12.192Z,246.49
2023-05-05T06:39:13.081Z,249.62
2023-05-05T06:40:12.235Z,249.92
2023-05-05T06:41:12.261Z,245.20
2023-05-05T06:42:12.304Z,248.77
2023-05-05T06:43:12.380Z,249.95
2023-05-05T06:44:12.666Z,250.00
2023-05-05T06:45:12.499Z,249.72
2023-05-05T06:46:12.591Z,248.83
2023-05-05T06:47:12.640Z,248.79
2023-05-05T06:48:12.671Z,246.80
2023-05-05T06:49:12.729Z,246.52
2023-05-05T06:50:12.815Z,247.52
2023-05-05T06:51:12.879Z,248.58
2023-05-05T06:52:12.929Z,248.83
2023-05-05T06:53:13.052Z,247.99
2023-05-05T06:54:13.166Z,247.61
2023-05-05T06:55:13.108Z,246.98
2023-05-05T06:56:13.181Z,245.69
2023-05-05T06:57:13.248Z,245.82
2023-05-05T06:58:13.276Z,244.78
2023-05-05T06:59:13.347Z,247.01
2023-05-05T07:00:13.413Z,245.26
2023-05-05T07:01:13.484Z,240.52
2023-05-05T07:02:13.514Z,243.40
2023-05-05T07:03:13.699Z,243.22
2023-05-05T07:04:13.667Z,244.81
2023-05-05T07:05:13.690Z,243.06
2023-05-05T07:06:13.742Z,242.37
2023-05-05T07:07:13.847Z,242.06
2023-05-05T07:08:13.840Z,237.81
2023-05-05T07:09:16.423Z,233.94
2023-05-05T07:10:13.891Z,233.50
2023-05-05T07:11:14.637Z,234.05
2023-05-05T07:12:13.877Z,235.04
2023-05-05T07:13:13.891Z,235.07
2023-05-05T07:14:13.871Z,235.91
2023-05-05T07:15:26.847Z,235.93
2023-05-05T07:16:14.882Z,235.99
2023-05-05T07:17:13.848Z,234.21
2023-05-05T07:18:13.845Z,231.87
2023-05-05T07:19:13.835Z,232.29
2023-05-05T07:20:13.949Z,232.88
2023-05-05T07:21:13.850Z,233.71
2023-05-05T07:22:13.822Z,234.17
2023-05-05T07:23:13.821Z,233.60
2023-05-05T07:24:13.797Z,232.95
2023-05-05T07:25:13.890Z,232.94
2023-05-05T07:26:13.885Z,229.83
2023-05-05T07:27:13.938Z,230.92
2023-05-05T07:28:13.967Z,227.25
2023-05-05T07:29:14.187Z,222.65
2023-05-05T07:30:17.346Z,215.98
2023-05-05T07:31:14.057Z,214.44
2023-05-05T07:32:14.203Z,215.39
2023-05-05T07:33:14.056Z,216.64
2023-05-05T07:34:14.044Z,217.20
2023-05-05T07:35:14.039Z,214.12
2023-05-05T07:36:14.018Z,205.82
2023-05-05T07:37:14.088Z,204.42
2023-05-05T07:38:14.027Z,207.35
2023-05-05T07:39:14.016Z,210.37
2023-05-05T07:40:14.000Z,213.78
2023-05-05T07:41:14.062Z,215.63
2023-05-05T07:42:13.974Z,218.44
2023-05-05T07:43:13.996Z,220.83
2023-05-05T07:44:13.964Z,220.32
2023-05-05T07:45:13.964Z,218.68
2023-05-05T07:46:14.038Z,218.40
2023-05-05T07:47:13.941Z,217.94
2023-05-05T07:48:13.935Z,220.04
2023-05-05T07:49:14.176Z,219.43
2023-05-05T07:50:13.958Z,221.95
2023-05-05T07:51:13.987Z,222.37
2023-05-05T07:52:14.030Z,222.86
2023-05-05T07:53:15.106Z,224.51
2023-05-05T07:54:14.189Z,224.75
2023-05-05T07:55:14.122Z,225.57
2023-05-05T07:56:14.172Z,226.75
2023-05-05T07:57:14.227Z,226.38
2023-05-05T07:58:14.207Z,226.10
2023-05-05T07:59:14.692Z,225.60
2023-05-05T08:00:14.261Z,224.49
2023-05-05T08:01:14.327Z,225.47
2023-05-05T08:02:14.379Z,225.86
2023-05-05T08:03:14.426Z,224.13
2023-05-05T08:04:14.449Z,224.46
2023-05-05T08:05:14.414Z,225.82
2023-05-05T08:06:14.446Z,224.02
2023-05-05T08:07:14.476Z,226.31
2023-05-05T08:08:14.517Z,226.47
2023-05-05T08:09:14.530Z,227.92
2023-05-05T08:10:14.576Z,227.63
2023-05-05T08:11:14.584Z,227.15
2023-05-05T08:12:14.603Z,227.87
2023-05-05T08:13:14.754Z,227.36
2023-05-05T08:14:14.650Z,225.83
2023-05-05T08:15:14.688Z,225.69
2023-05-05T08:16:14.746Z,225.14
2023-05-05T08:17:14.747Z,226.25
2023-05-05T08:18:14.767Z,225.56
2023-05-05T08:19:27.597Z,227.06
2023-05-05T08:20:15.791Z,227.20
2023-05-05T08:21:14.791Z,220.79
2023-05-05T08:22:14.776Z,223.16
2023-05-05T08:23:14.813Z,169.28
2023-05-05T08:24:15.692Z,83.64
2023-05-05T08:25:14.900Z,50.91
2023-05-05T08:26:14.940Z,18.32
2023-05-05T08:27:14.953Z,0.00
2023-05-05T08:28:14.973Z,0.00
2023-05-05T08:29:15.071Z,0.00
2023-05-05T08:30:15.003Z,4.89
2023-05-05T08:31:15.069Z,0.00
2023-05-05T08:32:15.082Z,0.00
2023-05-05T08:33:15.154Z,12.58
2023-05-05T08:34:15.158Z,8.55
2023-05-05T08:35:15.226Z,20.38
2023-05-05T08:36:15.256Z,21.96
2023-05-05T08:37:15.301Z,24.22
2023-05-05T08:38:15.421Z,27.57
2023-05-05T08:39:15.423Z,37.74
2023-05-05T08:40:15.505Z,53.20
2023-05-05T08:41:15.536Z,61.56
2023-05-05T08:42:25.401Z,63.25
2023-05-05T08:43:16.572Z,63.95
2023-05-05T08:44:15.581Z,68.27
2023-05-05T08:45:15.627Z,75.83
2023-05-05T08:46:15.588Z,85.05
2023-05-05T08:47:15.717Z,114.16
2023-05-05T08:48:15.537Z,120.56
2023-05-05T08:49:15.526Z,123.14
2023-05-05T08:50:15.565Z,138.88
2023-05-05T08:51:15.552Z,145.49
2023-05-05T08:52:15.564Z,146.39
2023-05-05T08:53:15.524Z,139.37
2023-05-05T08:54:15.689Z,145.30
2023-05-05T08:55:15.508Z,153.34
2023-05-05T08:56:15.528Z,128.26
2023-05-05T08:57:15.471Z,102.90
2023-05-05T08:58:15.466Z,107.96
2023-05-05T08:59:15.503Z,103.94
2023-05-05T09:00:15.472Z,116.27
2023-05-05T09:01:15.699Z,123.36
2023-05-05T09:02:15.460Z,139.60
2023-05-05T09:03:15.662Z,131.07
2023-05-05T09:04:15.445Z,140.45
2023-05-05T09:05:15.424Z,144.54
2023-05-05T09:06:15.421Z,151.03
2023-05-05T09:07:15.413Z,156.30
2023-05-05T09:08:15.451Z,156.40
2023-05-05T09:09:15.464Z,164.54
2023-05-05T09:10:15.521Z,167.11
2023-05-05T09:11:15.564Z,164.96
2023-05-05T09:12:15.621Z,155.76
2023-05-05T09:13:15.681Z,163.59
2023-05-05T09:14:15.677Z,165.80
2023-05-05T09:15:15.723Z,163.31
2023-05-05T09:16:15.773Z,172.30
2023-05-05T09:17:15.815Z,174.35
2023-05-05T09:18:15.863Z,173.61
2023-05-05T09:19:15.888Z,174.48
2023-05-05T09:20:15.910Z,178.42
2023-05-05T09:21:15.940Z,177.43
2023-05-05T09:22:15.986Z,180.40
2023-05-05T09:23:15.984Z,182.42
2023-05-05T09:24:16.039Z,184.03
2023-05-05T09:25:16.050Z,185.86
2023-05-05T09:26:16.069Z,175.56
2023-05-05T09:27:16.085Z,124.71
2023-05-05T09:28:16.173Z,92.67
2023-05-05T09:29:16.192Z,64.74
2023-05-05T09:30:16.241Z,56.22
2023-05-05T09:31:16.449Z,37.40
2023-05-05T09:32:16.336Z,45.43
2023-05-05T09:33:16.706Z,47.69
2023-05-05T09:34:16.447Z,53.39
2023-05-05T09:35:16.555Z,56.73
2023-05-05T09:36:16.589Z,67.56
2023-05-05T09:37:16.637Z,56.70
2023-05-05T09:38:16.710Z,66.32
2023-05-05T09:39:16.750Z,69.51
2023-05-05T09:40:16.798Z,76.44
2023-05-05T09:41:16.861Z,87.81
2023-05-05T09:42:16.924Z,85.04
2023-05-05T09:43:16.956Z,82.72
2023-05-05T09:44:17.045Z,83.67
2023-05-05T09:45:17.074Z,68.29
2023-05-05T09:46:17.132Z,83.41
2023-05-05T09:47:29.095Z,78.00
2023-05-05T09:48:18.319Z,78.27
2023-05-05T09:49:17.219Z,80.71
2023-05-05T09:50:17.165Z,87.08
2023-05-05T09:51:17.152Z,89.10
2023-05-05T09:52:17.155Z,79.26
2023-05-05T09:53:17.142Z,75.84
2023-05-05T09:54:17.117Z,84.58
2023-05-05T09:55:17.151Z,76.01
2023-05-05T09:56:17.203Z,62.10
2023-05-05T09:57:17.272Z,52.71
2023-05-05T09:58:17.418Z,40.56
2023-05-05T09:59:17.384Z,39.11
2023-05-05T10:00:17.710Z,49.69
2023-05-05T10:01:17.472Z,56.55
2023-05-05T10:02:17.502Z,56.50
2023-05-05T10:03:17.539Z,44.63
2023-05-05T10:04:17.575Z,16.81
2023-05-05T10:05:17.958Z,30.63
2023-05-05T10:06:17.599Z,33.24
2023-05-05T10:07:17.611Z,24.30
2023-05-05T10:08:17.591Z,21.58
2023-05-05T10:09:17.602Z,13.82
2023-05-05T10:10:17.648Z,30.84
2023-05-05T10:11:17.596Z,29.65
2023-05-05T10:12:17.607Z,27.16
2023-05-05T10:13:17.680Z,47.30
2023-05-05T10:14:17.609Z,46.78
2023-05-05T10:15:17.625Z,35.75
2023-05-05T10:16:17.632Z,15.74
2023-05-05T10:17:17.594Z,0.00
2023-05-05T10:18:17.621Z,19.71
2023-05-05T10:19:17.601Z,21.35
2023-05-05T10:20:17.615Z,25.95
2023-05-05T10:21:17.659Z,26.48
2023-05-05T10:22:17.593Z,23.50
2023-05-05T10:23:17.598Z,36.71
2023-05-05T10:24:17.612Z,32.67
2023-05-05T10:25:17.578Z,30.89
2023-05-05T10:26:17.575Z,43.97
2023-05-05T10:27:17.570Z,46.58
2023-05-05T10:28:17.602Z,57.07
2023-05-05T10:29:17.620Z,51.36
2023-05-05T10:30:17.636Z,67.69
2023-05-05T10:31:25.754Z,84.41
2023-05-05T10:32:49.746Z,83.12
2023-05-05T10:33:31.551Z,68.86
2023-05-05T10:34:18.672Z,84.44
2023-05-05T10:35:17.628Z,83.41
2023-05-05T10:36:17.632Z,75.57
2023-05-05T10:37:17.686Z,66.18
2023-05-05T10:38:17.609Z,52.15
2023-05-05T10:39:17.600Z,30.81
2023-05-05T10:40:17.595Z,27.00
2023-05-05T10:41:17.589Z,26.04
2023-05-05T10:42:17.580Z,29.79
2023-05-05T10:43:17.612Z,35.01
2023-05-05T10:44:17.584Z,37.43
2023-05-05T10:45:17.622Z,26.89
2023-05-05T10:46:17.585Z,11.89
2023-05-05T10:47:17.538Z,6.42
2023-05-05T10:48:17.592Z,12.01
2023-05-05T10:49:17.560Z,29.38
2023-05-05T10:50:17.543Z,37.74
2023-05-05T10:51:27.409Z,31.16
2023-05-05T10:52:18.513Z,31.34
2023-05-05T10:53:17.569Z,32.11
2023-05-05T10:54:17.525Z,33.73
2023-05-05T10:55:17.526Z,38.42
2023-05-05T10:56:17.483Z,49.22
2023-05-05T10:57:17.490Z,54.68
2023-05-05T10:58:17.488Z,58.24
2023-05-05T10:59:17.492Z,55.67
2023-05-05T11:00:17.477Z,53.44
2023-05-05T11:01:17.491Z,49.82
2023-05-05T11:02:17.444Z,52.88
2023-05-05T11:03:17.491Z,57.37
2023-05-05T11:04:17.441Z,66.00
2023-05-05T11:05:17.465Z,87.88
2023-05-05T11:06:17.440Z,90.94
2023-05-05T11:07:17.428Z,94.48
2023-05-05T11:08:17.400Z,97.15
2023-05-05T11:09:17.537Z,96.76
2023-05-05T11:10:17.761Z,92.19
2023-05-05T11:11:17.411Z,98.72
2023-05-05T11:12:17.460Z,111.01
2023-05-05T11:13:17.563Z,117.48
2023-05-05T11:14:17.595Z,123.73
2023-05-05T11:15:17.754Z,115.54
2023-05-05T11:16:17.725Z,102.35
2023-05-05T11:17:17.781Z,100.47
2023-05-05T11:18:17.949Z,101.78
2023-05-05T11:19:17.906Z,110.41
2023-05-05T11:20:18.247Z,113.13
2023-05-05T11:21:18.074Z,117.09
2023-05-05T11:22:18.086Z,119.94
2023-05-05T11:23:18.146Z,124.24
2023-05-05T11:24:18.188Z,124.18
2023-05-05T11:25:18.312Z,125.29
2023-05-05T11:26:18.318Z,128.08
2023-05-05T11:27:18.371Z,133.28
2023-05-05T11:28:18.427Z,135.72
2023-05-05T11:29:18.465Z,136.95
2023-05-05T11:30:18.524Z,138.52
2023-05-05T11:31:18.680Z,140.51
2023-05-05T11:32:18.636Z,143.32
2023-05-05T11:33:18.695Z,143.91
2023-05-05T11:34:18.726Z,145.38
2023-05-05T11:35:18.796Z,149.27
2023-05-05T11:36:18.845Z,151.06
2023-05-05T11:37:18.877Z,153.56
2023-05-05T11:38:18.962Z,154.54
2023-05-05T11:39:18.991Z,158.49
2023-05-05T11:40:19.064Z,158.58
2023-05-05T11:41:19.164Z,162.39
2023-05-05T11:42:19.140Z,162.82
2023-05-05T11:43:19.197Z,162.68
2023-05-05T11:44:19.247Z,167.00
2023-05-05T11:45:19.303Z,167.62
2023-05-05T11:46:19.366Z,167.00
2023-05-05T11:47:19.408Z,166.69
2023-05-05T11:48:19.448Z,167.48
2023-05-05T11:49:19.525Z,169.08
2023-05-05T11:50:19.589Z,169.31
2023-05-05T11:51:19.615Z,166.77
2023-05-05T11:52:19.683Z,168.62
2023-05-05T11:53:19.746Z,170.49
2023-05-05T11:54:19.792Z,173.15
2023-05-05T11:55:19.854Z,170.64
2023-05-05T11:56:19.908Z,170.65
2023-05-05T11:57:20.008Z,172.34
2023-05-05T11:58:20.010Z,172.09
2023-05-05T11:59:20.061Z,174.00
2023-05-05T12:00:20.129Z,171.60
2023-05-05T12:01:20.202Z,172.05
2023-05-05T12:02:20.273Z,172.57
2023-05-05T12:03:20.379Z,170.70
2023-05-05T12:04:20.361Z,172.49
2023-05-05T12:05:20.369Z,171.67
2023-05-05T12:06:20.439Z,171.73
2023-05-05T12:07:20.497Z,174.48
2023-05-05T12:08:20.549Z,173.52
2023-05-05T12:09:20.609Z,173.84
2023-05-05T12:10:20.666Z,174.04
2023-05-05T12:11:20.699Z,173.02
2023-05-05T12:12:20.767Z,172.55
2023-05-05T12:13:21.064Z,172.17
2023-05-05T12:14:20.907Z,171.49
2023-05-05T12:15:20.945Z,164.50
2023-05-05T12:16:21.029Z,162.87
2023-05-05T12:17:21.081Z,168.31
2023-05-05T12:18:21.169Z,172.18
2023-05-05T12:19:21.198Z,174.87
2023-05-05T12:20:21.245Z,177.96
2023-05-05T12:21:21.289Z,176.71
2023-05-05T12:22:21.379Z,175.87
2023-05-05T12:23:21.417Z,175.54
2023-05-05T12:24:21.489Z,173.47
2023-05-05T12:25:21.549Z,174.50
2023-05-05T12:26:21.592Z,169.39
2023-05-05T12:27:21.651Z,164.89
2023-05-05T12:28:21.702Z,164.19
2023-05-05T12:29:21.817Z,161.58
2023-05-05T12:30:21.849Z,152.71
2023-05-05T12:31:21.902Z,161.86
2023-05-05T12:32:21.951Z,163.27